Time,TemperatureF,DewpointF,PressureIn,WindDirection,WindDirectionDegrees,WindSpeedMPH,WindSpeedGustMPH,Humidity,HourlyPrecipIn,Conditions,Clouds,dailyrainin,SoftwareType,DateUTC
2013-06-05 00:07:00,56.3,51.0,30.12,WSW,258,0.0,0.0,83,0.00,,,0.00,weatherlink.com 1.10,2013-06-05 04:07:00,
2013-06-05 00:22:00,55.7,52.0,30.12,WSW,256,0.0,0.0,86,0.00,,,0.00,weatherlink.com 1.10,2013-06-05 04:22:00,
2013-06-05 00:37:00,55.7,51.0,30.12,North,9,0.0,4.0,84,0.00,,,0.00,weatherlink.com 1.10,2013-06-05 04:37:00,
2013-06-05 00:54:00,55.6,51.0,30.12,NE,51,0.0,3.0,85,0.00,,,0.00,weatherlink.com 1.10,2013-06-05 04:54:00,
2013-06-05 01:07:00,55.3,51.0,30.11,ENE,73,0.0,2.0,84,0.00,,,0.00,weatherlink.com 1.10,2013-06-05 05:07:00,
2013-06-05 01:22:00,55.3,51.0,30.11,ENE,65,0.0,0.0,84,0.00,,,0.00,weatherlink.com 1.10,2013-06-05 05:22:00,
2013-06-05 01:37:00,54.4,50.0,30.11,ENE,65,0.0,0.0,86,0.00,,,0.00,weatherlink.com 1.10,2013-06-05 05:37:00,
2013-06-05 01:54:00,53.8,50.0,30.12,ENE,65,0.0,0.0,88,0.00,,,0.00,weatherlink.com 1.10,2013-06-05 05:54:00,
2013-06-05 02:07:00,53.6,50.0,30.12,North,351,0.0,2.0,87,0.00,,,0.00,weatherlink.com 1.10,2013-06-05 06:07:00,
2013-06-05 02:22:00,52.8,50.0,30.12,North,351,0.0,0.0,89,0.00,,,0.00,weatherlink.com 1.10,2013-06-05 06:22:00,
2013-06-05 02:37:00,52.1,50.0,30.12,North,351,0.0,0.0,91,0.00,,,0.00,weatherlink.com 1.10,2013-06-05 06:37:00,
2013-06-05 02:54:00,52.0,50.0,30.11,North,351,0.0,0.0,91,0.00,,,0.00,weatherlink.com 1.10,2013-06-05 06:54:00,
2013-06-05 03:07:00,51.4,49.0,30.12,North,351,0.0,0.0,92,0.00,,,0.00,weatherlink.com 1.10,2013-06-05 07:07:00,
2013-06-05 03:22:00,50.9,49.0,30.12,North,351,0.0,0.0,93,0.00,,,0.00,weatherlink.com 1.10,2013-06-05 07:22:00,
2013-06-05 03:37:00,50.3,48.0,30.13,West,260,0.0,0.0,92,0.00,,,0.00,weatherlink.com 1.10,2013-06-05 07:37:00,
2013-06-05 03:54:00,50.2,49.0,30.13,West,260,0.0,0.0,94,0.00,,,0.00,weatherlink.com 1.10,2013-06-05 07:54:00,
2013-06-05 04:07:00,50.6,48.0,30.14,NNW,344,0.0,0.0,92,0.00,,,0.00,weatherlink.com 1.10,2013-06-05 08:07:00,
2013-06-05 04:22:00,50.1,48.0,30.14,NNW,344,0.0,0.0,93,0.00,,,0.00,weatherlink.com 1.10,2013-06-05 08:22:00,
2013-06-05 04:37:00,50.0,48.0,30.15,NNW,344,0.0,0.0,93,0.00,,,0.00,weatherlink.com 1.10,2013-06-05 08:37:00,
2013-06-05 04:54:00,50.1,48.0,30.15,NNW,344,0.0,0.0,93,0.00,,,0.00,weatherlink.com 1.10,2013-06-05 08:54:00,
2013-06-05 05:07:00,49.7,48.0,30.16,NNW,344,0.0,0.0,94,0.00,,,0.00,weatherlink.com 1.10,2013-06-05 09:07:00,
2013-06-05 05:22:00,49.5,48.0,30.16,NNW,344,0.0,0.0,94,0.00,,,0.00,weatherlink.com 1.10,2013-06-05 09:22:00,
2013-06-05 05:37:00,48.9,47.0,30.17,NNW,344,0.0,0.0,94,0.00,,,0.00,weatherlink.com 1.10,2013-06-05 09:37:00,
2013-06-05 05:54:00,49.2,48.0,30.18,NNW,344,0.0,0.0,94,0.00,,,0.00,weatherlink.com 1.10,2013-06-05 09:54:00,
2013-06-05 06:07:00,49.1,48.0,30.18,NNW,344,0.0,0.0,94,0.00,,,0.00,weatherlink.com 1.10,2013-06-05 10:07:00,
2013-06-05 06:22:00,49.2,48.0,30.19,NNW,344,0.0,0.0,94,0.00,,,0.00,weatherlink.com 1.10,2013-06-05 10:22:00,
2013-06-05 06:37:00,50.1,49.0,30.19,NNW,344,0.0,0.0,95,0.00,,,0.00,weatherlink.com 1.10,2013-06-05 10:37:00,
2013-06-05 06:54:00,51.5,50.0,30.20,West,261,0.0,0.0,95,0.00,,,0.00,weatherlink.com 1.10,2013-06-05 10:54:00,
2013-06-05 07:07:00,53.5,52.0,30.20,West,261,0.0,0.0,93,0.00,,,0.00,weatherlink.com 1.10,2013-06-05 11:07:00,
2013-06-05 07:22:00,55.6,52.0,30.20,West,261,0.0,0.0,87,0.00,,,0.00,weatherlink.com 1.10,2013-06-05 11:22:00,
2013-06-05 07:37:00,57.9,51.0,30.20,North,355,1.0,2.0,77,0.00,,,0.00,weatherlink.com 1.10,2013-06-05 11:37:00,
2013-06-05 07:55:00,60.3,47.0,30.20,ENE,73,0.0,3.0,61,0.00,,,0.00,weatherlink.com 1.10,2013-06-05 11:55:00,
2013-06-05 08:08:00,62.4,45.0,30.20,ENE,62,0.0,3.0,54,0.00,,,0.00,weatherlink.com 1.10,2013-06-05 12:08:00,
2013-06-05 08:23:00,63.4,45.0,30.20,NE,53,0.0,3.0,52,0.00,,,0.00,weatherlink.com 1.10,2013-06-05 12:23:00,
2013-06-05 08:38:00,63.9,44.0,30.21,NE,40,1.0,3.0,48,0.00,,,0.00,weatherlink.com 1.10,2013-06-05 12:38:00,
2013-06-05 08:55:00,64.3,44.0,30.20,SE,137,0.0,5.0,48,0.00,,,0.00,weatherlink.com 1.10,2013-06-05 12:55:00,
2013-06-05 09:08:00,65.5,43.0,30.20,East,79,1.0,4.0,45,0.00,,,0.00,weatherlink.com 1.10,2013-06-05 13:08:00,
2013-06-05 09:23:00,65.4,44.0,30.21,NW,325,2.0,4.0,47,0.00,,,0.00,weatherlink.com 1.10,2013-06-05 13:23:00,
2013-06-05 09:38:00,66.3,44.0,30.20,ESE,107,2.0,3.0,45,0.00,,,0.00,weatherlink.com 1.10,2013-06-05 13:38:00,
2013-06-05 09:55:00,67.4,45.0,30.20,ESE,117,1.0,5.0,44,0.00,,,0.00,weatherlink.com 1.10,2013-06-05 13:55:00,
2013-06-05 10:08:00,68.8,43.0,30.20,South,169,2.0,5.0,39,0.00,,,0.00,weatherlink.com 1.10,2013-06-05 14:08:00,
2013-06-05 10:23:00,68.5,40.0,30.19,ENE,69,5.0,7.0,36,0.00,,,0.00,weatherlink.com 1.10,2013-06-05 14:23:00,
2013-06-05 10:38:00,69.4,43.0,30.19,SE,141,3.0,5.0,39,0.00,,,0.00,weatherlink.com 1.10,2013-06-05 14:38:00,
2013-06-05 10:55:00,69.5,42.0,30.19,ENE,77,3.0,6.0,37,0.00,,,0.00,weatherlink.com 1.10,2013-06-05 14:55:00,
2013-06-05 11:08:00,70.4,44.0,30.18,SW,229,1.0,6.0,39,0.00,,,0.00,weatherlink.com 1.10,2013-06-05 15:08:00,
2013-06-05 11:23:00,70.5,44.0,30.18,SSW,205,2.0,6.0,39,0.00,,,0.00,weatherlink.com 1.10,2013-06-05 15:23:00,
2013-06-05 11:38:00,71.4,42.0,30.17,SSE,167,2.0,8.0,34,0.00,,,0.00,weatherlink.com 1.10,2013-06-05 15:38:00,
2013-06-05 11:55:00,72.2,41.0,30.16,ENE,67,1.0,8.0,32,0.00,,,0.00,weatherlink.com 1.10,2013-06-05 15:55:00,
2013-06-05 12:08:00,72.9,41.0,30.16,East,81,2.0,9.0,32,0.00,,,0.00,weatherlink.com 1.10,2013-06-05 16:08:00,
2013-06-05 12:23:00,73.6,42.0,30.15,East,97,5.0,8.0,32,0.00,,,0.00,weatherlink.com 1.10,2013-06-05 16:23:00,
2013-06-05 12:38:00,74.5,46.0,30.15,ENE,77,4.0,10.0,36,0.00,,,0.00,weatherlink.com 1.10,2013-06-05 16:38:00,
2013-06-05 12:55:00,74.5,43.0,30.14,ESE,123,3.0,11.0,33,0.00,,,0.00,weatherlink.com 1.10,2013-06-05 16:55:00,
2013-06-05 13:08:00,74.0,47.0,30.13,SSW,199,2.0,8.0,38,0.00,,,0.00,weatherlink.com 1.10,2013-06-05 17:08:00,
2013-06-05 13:23:00,74.9,45.0,30.13,SSE,156,2.0,6.0,35,0.00,,,0.00,weatherlink.com 1.10,2013-06-05 17:23:00,
2013-06-05 13:38:00,73.5,46.0,30.13,WNW,286,3.0,10.0,37,0.00,,,0.00,weatherlink.com 1.10,2013-06-05 17:38:00,
2013-06-05 13:55:00,73.6,48.0,30.13,West,259,2.0,7.0,40,0.00,,,0.00,weatherlink.com 1.10,2013-06-05 17:55:00,
2013-06-05 14:08:00,74.2,45.0,30.13,South,177,2.0,9.0,35,0.00,,,0.00,weatherlink.com 1.10,2013-06-05 18:08:00,
2013-06-05 14:23:00,75.0,46.0,30.12,SSE,166,2.0,9.0,35,0.00,,,0.00,weatherlink.com 1.10,2013-06-05 18:23:00,
2013-06-05 14:38:00,75.7,46.0,30.11,ESE,120,8.0,9.0,35,0.00,,,0.00,weatherlink.com 1.10,2013-06-05 18:38:00,
2013-06-05 14:55:00,76.6,47.0,30.11,South,184,4.0,6.0,35,0.00,,,0.00,weatherlink.com 1.10,2013-06-05 18:55:00,
2013-06-05 15:08:00,75.1,48.0,30.11,SSE,163,3.0,13.0,39,0.00,,,0.00,weatherlink.com 1.10,2013-06-05 19:08:00,
2013-06-05 15:23:00,76.6,54.0,30.11,SSE,163,9.0,9.0,45,0.00,,,0.00,weatherlink.com 1.10,2013-06-05 19:23:00,
2013-06-05 15:38:00,76.9,48.0,30.11,SSE,160,1.0,8.0,36,0.00,,,0.00,weatherlink.com 1.10,2013-06-05 19:38:00,
2013-06-05 15:55:00,76.1,47.0,30.10,SSW,194,4.0,11.0,36,0.00,,,0.00,weatherlink.com 1.10,2013-06-05 19:55:00,
2013-06-05 16:08:00,75.8,49.0,30.10,SE,146,5.0,9.0,39,0.00,,,0.00,weatherlink.com 1.10,2013-06-05 20:08:00,
2013-06-05 16:23:00,77.3,49.0,30.10,SE,131,2.0,7.0,37,0.00,,,0.00,weatherlink.com 1.10,2013-06-05 20:23:00,
2013-06-05 16:38:00,76.2,50.0,30.10,SSE,152,5.0,9.0,40,0.00,,,0.00,weatherlink.com 1.10,2013-06-05 20:38:00,
2013-06-05 16:55:00,76.7,48.0,30.11,SSW,206,5.0,8.0,37,0.00,,,0.00,weatherlink.com 1.10,2013-06-05 20:55:00,
2013-06-05 17:09:00,76.6,48.0,30.11,SSE,160,5.0,8.0,37,0.00,,,0.00,weatherlink.com 1.10,2013-06-05 21:09:00,
2013-06-05 17:24:00,75.6,48.0,30.10,SSE,153,5.0,12.0,38,0.00,,,0.00,weatherlink.com 1.10,2013-06-05 21:24:00,
2013-06-05 17:39:00,76.2,48.0,30.10,SSW,209,4.0,10.0,37,0.00,,,0.00,weatherlink.com 1.10,2013-06-05 21:39:00,
2013-06-05 17:56:00,75.5,47.0,30.09,SW,217,6.0,12.0,36,0.00,,,0.00,weatherlink.com 1.10,2013-06-05 21:56:00,
2013-06-05 18:24:00,75.0,48.0,30.09,SW,227,8.0,10.0,38,0.00,,,0.00,weatherlink.com 1.10,2013-06-05 22:24:00,
2013-06-05 18:56:00,74.8,49.0,30.08,South,174,10.0,10.0,40,0.00,,,0.00,weatherlink.com 1.10,2013-06-05 22:56:00,
2013-06-05 19:09:00,74.3,50.0,30.08,South,175,6.0,9.0,42,0.00,,,0.00,weatherlink.com 1.10,2013-06-05 23:09:00,
2013-06-05 19:24:00,73.9,50.0,30.07,SSE,159,2.0,8.0,43,0.00,,,0.00,weatherlink.com 1.10,2013-06-05 23:24:00,
2013-06-05 19:39:00,73.3,50.0,30.08,South,172,5.0,7.0,44,0.00,,,0.00,weatherlink.com 1.10,2013-06-05 23:39:00,
2013-06-05 19:56:00,72.8,50.0,30.07,South,180,2.0,8.0,45,0.00,,,0.00,weatherlink.com 1.10,2013-06-05 23:56:00,
2013-06-05 20:09:00,72.0,51.0,30.07,SSE,153,0.0,2.0,48,0.00,,,0.00,weatherlink.com 1.10,2013-06-06 00:09:00,
2013-06-05 20:24:00,71.3,50.0,30.06,ESE,113,1.0,3.0,48,0.00,,,0.00,weatherlink.com 1.10,2013-06-06 00:24:00,
2013-06-05 20:39:00,70.4,52.0,30.07,ESE,113,0.0,0.0,53,0.00,,,0.00,weatherlink.com 1.10,2013-06-06 00:39:00,
2013-06-05 20:56:00,69.1,51.0,30.07,East,88,2.0,2.0,53,0.00,,,0.00,weatherlink.com 1.10,2013-06-06 00:56:00,
2013-06-05 21:09:00,68.8,51.0,30.07,ESE,110,2.0,3.0,53,0.00,,,0.00,weatherlink.com 1.10,2013-06-06 01:09:00,
2013-06-05 21:24:00,68.1,51.0,30.07,East,101,2.0,4.0,55,0.00,,,0.00,weatherlink.com 1.10,2013-06-06 01:24:00,
2013-06-05 21:39:00,67.4,51.0,30.08,ESE,107,2.0,4.0,56,0.00,,,0.00,weatherlink.com 1.10,2013-06-06 01:39:00,
2013-06-05 21:56:00,67.0,50.0,30.08,ESE,102,2.0,6.0,55,0.00,,,0.00,weatherlink.com 1.10,2013-06-06 01:56:00,
2013-06-05 22:09:00,66.8,49.0,30.09,SE,134,4.0,5.0,54,0.00,,,0.00,weatherlink.com 1.10,2013-06-06 02:09:00,
2013-06-05 22:24:00,66.8,49.0,30.10,ESE,113,0.0,5.0,54,0.00,,,0.00,weatherlink.com 1.10,2013-06-06 02:24:00,
2013-06-05 22:39:00,66.7,48.0,30.10,SE,136,4.0,5.0,52,0.00,,,0.00,weatherlink.com 1.10,2013-06-06 02:39:00,
2013-06-05 22:56:00,66.2,48.0,30.10,SE,138,3.0,4.0,52,0.00,,,0.00,weatherlink.com 1.10,2013-06-06 02:56:00,
2013-06-05 23:09:00,65.4,50.0,30.09,ESE,112,1.0,3.0,57,0.00,,,0.00,weatherlink.com 1.10,2013-06-06 03:09:00,
2013-06-05 23:24:00,64.9,48.0,30.10,ESE,113,0.0,2.0,54,0.00,,,0.00,weatherlink.com 1.10,2013-06-06 03:24:00,
2013-06-05 23:39:00,64.8,48.0,30.10,ESE,115,1.0,5.0,55,0.00,,,0.00,weatherlink.com 1.10,2013-06-06 03:39:00,
2013-06-05 23:56:00,64.4,48.0,30.10,East,96,1.0,6.0,56,0.00,,,0.00,weatherlink.com 1.10,2013-06-06 03:56:00,